sensor_id;sensor_type;location;lat;lon;timestamp;pressure;altitude;pressure_sealevel;temperature;humidity
64844;BME280;51310;52.198;5.422;2022-11-15T00:00:55;100602.75;;;5.27;100.00
64844;BME280;51310;52.198;5.422;2022-11-15T00:03:25;100599.28;;;5.27;100.00
64844;BME280;51310;52.198;5.422;2022-11-15T00:05:52;100597.81;;;5.29;100.00
64844;BME280;51310;52.198;5.422;2022-11-15T00:08:18;100598.34;;;5.33;100.00
64844;BME280;51310;52.198;5.422;2022-11-15T00:10:55;100598.69;;;5.37;100.00
64844;BME280;51310;52.198;5.422;2022-11-15T00:13:22;100603.97;;;5.38;100.00
64844;BME280;51310;52.198;5.422;2022-11-15T00:15:47;100608.00;;;5.36;100.00
64844;BME280;51310;52.198;5.422;2022-11-15T00:18:14;100609.41;;;5.41;100.00
64844;BME280;51310;52.198;5.422;2022-11-15T00:20:41;100604.47;;;5.43;100.00
64844;BME280;51310;52.198;5.422;2022-11-15T00:23:08;100597.91;;;5.45;100.00
64844;BME280;51310;52.198;5.422;2022-11-15T00:25:34;100590.41;;;5.46;100.00
64844;BME280;51310;52.198;5.422;2022-11-15T00:28:00;100590.00;;;5.50;100.00
64844;BME280;51310;52.198;5.422;2022-11-15T00:30:28;100587.81;;;5.53;100.00
64844;BME280;51310;52.198;5.422;2022-11-15T00:32:54;100588.34;;;5.58;100.00
64844;BME280;51310;52.198;5.422;2022-11-15T00:35:21;100588.53;;;5.52;100.00
64844;BME280;51310;52.198;5.422;2022-11-15T00:37:47;100598.59;;;5.51;100.00
64844;BME280;51310;52.198;5.422;2022-11-15T00:40:15;100591.84;;;5.51;100.00
64844;BME280;51310;52.198;5.422;2022-11-15T00:42:41;100597.66;;;5.58;100.00
64844;BME280;51310;52.198;5.422;2022-11-15T00:45:08;100591.97;;;5.60;100.00
64844;BME280;51310;52.198;5.422;2022-11-15T00:47:34;100585.28;;;5.53;100.00
64844;BME280;51310;52.198;5.422;2022-11-15T00:50:00;100594.16;;;5.57;100.00
64844;BME280;51310;52.198;5.422;2022-11-15T00:52:26;100581.81;;;5.53;100.00
64844;BME280;51310;52.198;5.422;2022-11-15T00:54:52;100579.59;;;5.56;100.00
64844;BME280;51310;52.198;5.422;2022-11-15T00:57:18;100583.06;;;5.57;100.00
64844;BME280;51310;52.198;5.422;2022-11-15T00:59:43;100572.13;;;5.58;100.00
64844;BME280;51310;52.198;5.422;2022-11-15T01:02:09;100566.84;;;5.56;100.00
64844;BME280;51310;52.198;5.422;2022-11-15T01:04:35;100557.19;;;5.53;100.00
64844;BME280;51310;52.198;5.422;2022-11-15T01:07:01;100559.00;;;5.54;100.00
64844;BME280;51310;52.198;5.422;2022-11-15T01:09:27;100553.16;;;5.55;100.00
64844;BME280;51310;52.198;5.422;2022-11-15T01:11:52;100543.66;;;5.62;100.00
64844;BME280;51310;52.198;5.422;2022-11-15T01:14:18;100549.16;;;5.58;100.00
64844;BME280;51310;52.198;5.422;2022-11-15T01:16:44;100545.25;;;5.61;100.00
64844;BME280;51310;52.198;5.422;2022-11-15T01:19:10;100543.22;;;5.66;100.00
64844;BME280;51310;52.198;5.422;2022-11-15T01:21:36;100542.00;;;5.62;100.00
64844;BME280;51310;52.198;5.422;2022-11-15T01:24:02;100545.03;;;5.67;100.00
64844;BME280;51310;52.198;5.422;2022-11-15T01:26:28;100546.69;;;5.66;100.00
64844;BME280;51310;52.198;5.422;2022-11-15T01:28:54;100540.44;;;5.71;100.00
64844;BME280;51310;52.198;5.422;2022-11-15T01:31:21;100541.53;;;5.73;100.00
64844;BME280;51310;52.198;5.422;2022-11-15T01:33:48;100540.22;;;5.77;100.00
64844;BME280;51310;52.198;5.422;2022-11-15T01:36:20;100531.41;;;5.82;100.00
64844;BME280;51310;52.198;5.422;2022-11-15T01:38:54;100530.84;;;5.85;100.00
64844;BME280;51310;52.198;5.422;2022-11-15T01:41:25;100533.75;;;5.88;100.00
64844;BME280;51310;52.198;5.422;2022-11-15T01:47:03;100533.88;;;5.97;100.00
64844;BME280;51310;52.198;5.422;2022-11-15T01:49:35;100525.66;;;5.99;100.00
64844;BME280;51310;52.198;5.422;2022-11-15T01:52:08;100529.44;;;6.03;100.00
64844;BME280;51310;52.198;5.422;2022-11-15T01:54:36;100535.78;;;6.06;100.00
64844;BME280;51310;52.198;5.422;2022-11-15T01:57:07;100530.09;;;6.09;100.00
64844;BME280;51310;52.198;5.422;2022-11-15T01:59:42;100516.38;;;6.15;100.00
64844;BME280;51310;52.198;5.422;2022-11-15T02:02:09;100519.56;;;6.22;100.00
64844;BME280;51310;52.198;5.422;2022-11-15T02:04:43;100515.69;;;6.25;100.00
64844;BME280;51310;52.198;5.422;2022-11-15T02:07:15;100521.88;;;6.27;100.00
64844;BME280;51310;52.198;5.422;2022-11-15T02:09:44;100515.59;;;6.32;100.00
64844;BME280;51310;52.198;5.422;2022-11-15T02:12:15;100521.22;;;6.37;100.00
64844;BME280;51310;52.198;5.422;2022-11-15T02:14:52;100524.28;;;6.42;100.00
64844;BME280;51310;52.198;5.422;2022-11-15T02:18:46;100514.19;;;6.43;100.00
64844;BME280;51310;52.198;5.422;2022-11-15T02:32:56;100490.69;;;6.70;100.00
64844;BME280;51310;52.198;5.422;2022-11-15T02:36:02;100483.19;;;6.72;100.00
64844;BME280;51310;52.198;5.422;2022-11-15T02:38:48;100477.47;;;6.74;100.00
64844;BME280;51310;52.198;5.422;2022-11-15T02:41:40;100472.69;;;6.77;100.00
64844;BME280;51310;52.198;5.422;2022-11-15T02:44:33;100467.72;;;6.79;100.00
64844;BME280;51310;52.198;5.422;2022-11-15T02:47:11;100456.78;;;6.89;100.00
64844;BME280;51310;52.198;5.422;2022-11-15T02:49:45;100458.88;;;6.84;100.00
64844;BME280;51310;52.198;5.422;2022-11-15T02:52:17;100461.78;;;6.87;100.00
64844;BME280;51310;52.198;5.422;2022-11-15T02:54:59;100454.25;;;6.89;100.00
64844;BME280;51310;52.198;5.422;2022-11-15T02:58:12;100446.31;;;6.94;100.00
64844;BME280;51310;52.198;5.422;2022-11-15T03:00:58;100446.47;;;6.96;100.00
64844;BME280;51310;52.198;5.422;2022-11-15T03:03:59;100441.84;;;7.01;100.00
64844;BME280;51310;52.198;5.422;2022-11-15T03:07:13;100434.31;;;7.02;100.00
64844;BME280;51310;52.198;5.422;2022-11-15T03:10:00;100434.22;;;7.09;100.00
64844;BME280;51310;52.198;5.422;2022-11-15T03:12:51;100431.94;;;7.12;100.00
64844;BME280;51310;52.198;5.422;2022-11-15T03:15:29;100436.34;;;7.13;100.00
64844;BME280;51310;52.198;5.422;2022-11-15T03:18:03;100436.63;;;7.16;100.00
64844;BME280;51310;52.198;5.422;2022-11-15T03:20:31;100446.28;;;7.19;100.00
64844;BME280;51310;52.198;5.422;2022-11-15T03:23:07;100439.25;;;7.25;100.00
64844;BME280;51310;52.198;5.422;2022-11-15T03:25:42;100446.66;;;7.31;100.00
64844;BME280;51310;52.198;5.422;2022-11-15T03:28:17;100445.88;;;7.32;100.00
64844;BME280;51310;52.198;5.422;2022-11-15T03:30:56;100453.31;;;7.37;100.00
64844;BME280;51310;52.198;5.422;2022-11-15T03:33:22;100452.28;;;7.44;100.00
64844;BME280;51310;52.198;5.422;2022-11-15T03:35:49;100441.16;;;7.44;100.00
64844;BME280;51310;52.198;5.422;2022-11-15T03:38:26;100440.09;;;7.50;100.00
64844;BME280;51310;52.198;5.422;2022-11-15T03:41:00;100447.03;;;7.51;100.00
64844;BME280;51310;52.198;5.422;2022-11-15T03:43:43;100451.59;;;7.54;100.00
64844;BME280;51310;52.198;5.422;2022-11-15T03:46:20;100449.50;;;7.58;100.00
64844;BME280;51310;52.198;5.422;2022-11-15T03:49:14;100448.56;;;7.58;100.00
64844;BME280;51310;52.198;5.422;2022-11-15T03:51:50;100447.22;;;7.62;100.00
64844;BME280;51310;52.198;5.422;2022-11-15T03:54:16;100440.16;;;7.68;100.00
64844;BME280;51310;52.198;5.422;2022-11-15T03:56:42;100444.09;;;7.73;100.00
64844;BME280;51310;52.198;5.422;2022-11-15T03:59:08;100444.41;;;7.76;100.00
64844;BME280;51310;52.198;5.422;2022-11-15T04:01:33;100436.88;;;7.77;100.00
64844;BME280;51310;52.198;5.422;2022-11-15T04:03:59;100439.59;;;7.79;100.00
64844;BME280;51310;52.198;5.422;2022-11-15T04:06:25;100435.97;;;7.86;100.00
64844;BME280;51310;52.198;5.422;2022-11-15T04:08:51;100438.28;;;7.91;100.00
64844;BME280;51310;52.198;5.422;2022-11-15T04:11:17;100440.50;;;7.88;100.00
64844;BME280;51310;52.198;5.422;2022-11-15T04:13:43;100439.63;;;7.96;100.00
64844;BME280;51310;52.198;5.422;2022-11-15T04:16:08;100439.34;;;7.93;100.00
64844;BME280;51310;52.198;5.422;2022-11-15T04:18:34;100434.81;;;7.99;100.00
64844;BME280;51310;52.198;5.422;2022-11-15T04:21:00;100431.81;;;8.04;100.00
64844;BME280;51310;52.198;5.422;2022-11-15T04:23:44;100430.16;;;8.04;100.00
64844;BME280;51310;52.198;5.422;2022-11-15T04:26:30;100425.47;;;8.09;100.00
64844;BME280;51310;52.198;5.422;2022-11-15T04:28:57;100435.72;;;8.09;100.00
64844;BME280;51310;52.198;5.422;2022-11-15T04:31:41;100428.34;;;8.12;100.00
64844;BME280;51310;52.198;5.422;2022-11-15T04:34:07;100437.41;;;8.08;100.00
64844;BME280;51310;52.198;5.422;2022-11-15T04:36:33;100429.53;;;8.07;100.00
64844;BME280;51310;52.198;5.422;2022-11-15T04:39:17;100424.41;;;8.07;100.00
64844;BME280;51310;52.198;5.422;2022-11-15T04:41:43;100424.41;;;8.07;100.00
64844;BME280;51310;52.198;5.422;2022-11-15T04:44:09;100417.19;;;8.11;100.00
64844;BME280;51310;52.198;5.422;2022-11-15T04:46:35;100420.97;;;8.15;100.00
64844;BME280;51310;52.198;5.422;2022-11-15T04:49:01;100414.47;;;8.18;100.00
64844;BME280;51310;52.198;5.422;2022-11-15T04:51:27;100413.56;;;8.18;100.00
64844;BME280;51310;52.198;5.422;2022-11-15T04:53:53;100418.56;;;8.16;100.00
64844;BME280;51310;52.198;5.422;2022-11-15T04:56:19;100414.63;;;8.20;100.00
64844;BME280;51310;52.198;5.422;2022-11-15T04:58:45;100415.69;;;8.22;100.00
64844;BME280;51310;52.198;5.422;2022-11-15T05:01:13;100414.34;;;8.26;100.00
64844;BME280;51310;52.198;5.422;2022-11-15T05:03:41;100414.63;;;8.29;100.00
64844;BME280;51310;52.198;5.422;2022-11-15T05:06:28;100409.22;;;8.26;100.00
64844;BME280;51310;52.198;5.422;2022-11-15T05:08:56;100411.94;;;8.27;100.00
64844;BME280;51310;52.198;5.422;2022-11-15T05:11:22;100417.19;;;8.29;100.00
64844;BME280;51310;52.198;5.422;2022-11-15T05:13:49;100423.38;;;8.31;100.00
64844;BME280;51310;52.198;5.422;2022-11-15T05:16:15;100421.25;;;8.35;100.00
64844;BME280;51310;52.198;5.422;2022-11-15T05:18:41;100425.50;;;8.35;100.00
64844;BME280;51310;52.198;5.422;2022-11-15T05:21:11;100419.03;;;8.38;100.00
64844;BME280;51310;52.198;5.422;2022-11-15T05:23:40;100423.97;;;8.37;100.00
64844;BME280;51310;52.198;5.422;2022-11-15T05:26:07;100433.63;;;8.39;100.00
64844;BME280;51310;52.198;5.422;2022-11-15T05:28:35;100433.19;;;8.35;100.00
64844;BME280;51310;52.198;5.422;2022-11-15T05:31:11;100434.25;;;8.28;100.00
64844;BME280;51310;52.198;5.422;2022-11-15T05:33:40;100436.34;;;8.24;100.00
64844;BME280;51310;52.198;5.422;2022-11-15T05:36:42;100439.06;;;8.25;100.00
64844;BME280;51310;52.198;5.422;2022-11-15T05:39:10;100442.97;;;8.21;100.00
64844;BME280;51310;52.198;5.422;2022-11-15T05:41:45;100439.66;;;8.22;100.00
64844;BME280;51310;52.198;5.422;2022-11-15T05:44:17;100440.13;;;8.27;100.00
64844;BME280;51310;52.198;5.422;2022-11-15T05:46:45;100440.44;;;8.30;100.00
64844;BME280;51310;52.198;5.422;2022-11-15T05:49:17;100439.09;;;8.34;100.00
64844;BME280;51310;52.198;5.422;2022-11-15T05:51:48;100444.09;;;8.41;100.00
64844;BME280;51310;52.198;5.422;2022-11-15T05:54:15;100439.84;;;8.41;100.00
64844;BME280;51310;52.198;5.422;2022-11-15T05:56:42;100441.34;;;8.48;100.00
64844;BME280;51310;52.198;5.422;2022-11-15T05:59:09;100441.81;;;8.53;100.00
64844;BME280;51310;52.198;5.422;2022-11-15T06:01:37;100433.03;;;8.59;100.00
64844;BME280;51310;52.198;5.422;2022-11-15T06:04:03;100445.41;;;8.63;100.00
64844;BME280;51310;52.198;5.422;2022-11-15T06:06:29;100451.47;;;8.64;100.00
64844;BME280;51310;52.198;5.422;2022-11-15T06:08:55;100453.13;;;8.63;100.00
64844;BME280;51310;52.198;5.422;2022-11-15T06:11:21;100444.53;;;8.63;100.00
64844;BME280;51310;52.198;5.422;2022-11-15T06:13:47;100449.19;;;8.67;100.00
64844;BME280;51310;52.198;5.422;2022-11-15T06:16:12;100451.75;;;8.67;100.00
64844;BME280;51310;52.198;5.422;2022-11-15T06:18:38;100456.44;;;8.71;100.00
64844;BME280;51310;52.198;5.422;2022-11-15T06:21:05;100454.16;;;8.74;100.00
64844;BME280;51310;52.198;5.422;2022-11-15T06:23:34;100461.13;;;8.75;100.00
64844;BME280;51310;52.198;5.422;2022-11-15T06:26:02;100456.00;;;8.75;100.00
64844;BME280;51310;52.198;5.422;2022-11-15T06:28:30;100459.28;;;8.74;100.00
64844;BME280;51310;52.198;5.422;2022-11-15T06:31:02;100462.91;;;8.76;100.00
64844;BME280;51310;52.198;5.422;2022-11-15T06:33:29;100469.88;;;8.77;100.00
64844;BME280;51310;52.198;5.422;2022-11-15T06:35:55;100469.25;;;8.80;100.00
64844;BME280;51310;52.198;5.422;2022-11-15T06:38:21;100468.66;;;8.82;100.00
64844;BME280;51310;52.198;5.422;2022-11-15T06:40:46;100468.03;;;8.85;100.00
64844;BME280;51310;52.198;5.422;2022-11-15T06:43:12;100472.72;;;8.89;100.00
64844;BME280;51310;52.198;5.422;2022-11-15T06:45:39;100473.16;;;8.94;100.00
64844;BME280;51310;52.198;5.422;2022-11-15T06:48:05;100468.03;;;8.94;100.00
64844;BME280;51310;52.198;5.422;2022-11-15T06:50:31;100464.72;;;8.95;100.00
64844;BME280;51310;52.198;5.422;2022-11-15T06:53:02;100469.50;;;9.00;100.00
64844;BME280;51310;52.198;5.422;2022-11-15T06:55:29;100465.91;;;8.98;100.00
64844;BME280;51310;52.198;5.422;2022-11-15T06:57:55;100461.25;;;8.94;100.00
64844;BME280;51310;52.198;5.422;2022-11-15T07:00:22;100471.53;;;8.94;100.00
64844;BME280;51310;52.198;5.422;2022-11-15T07:02:48;100473.03;;;8.83;100.00
64844;BME280;51310;52.198;5.422;2022-11-15T07:05:15;100484.38;;;8.86;100.00
64844;BME280;51310;52.198;5.422;2022-11-15T07:07:41;100479.69;;;8.90;100.00
64844;BME280;51310;52.198;5.422;2022-11-15T07:10:08;100484.66;;;8.89;100.00
64844;BME280;51310;52.198;5.422;2022-11-15T07:12:34;100493.69;;;8.94;100.00
64844;BME280;51310;52.198;5.422;2022-11-15T07:15:00;100488.25;;;8.99;100.00
64844;BME280;51310;52.198;5.422;2022-11-15T07:17:26;100486.59;;;9.00;100.00
64844;BME280;51310;52.198;5.422;2022-11-15T07:19:51;100491.09;;;9.02;100.00
64844;BME280;51310;52.198;5.422;2022-11-15T07:22:17;100491.09;;;9.02;100.00
64844;BME280;51310;52.198;5.422;2022-11-15T07:24:43;100490.97;;;9.01;100.00
64844;BME280;51310;52.198;5.422;2022-11-15T07:27:09;100496.25;;;9.02;100.00
64844;BME280;51310;52.198;5.422;2022-11-15T07:29:35;100500.03;;;9.06;100.00
64844;BME280;51310;52.198;5.422;2022-11-15T07:32:00;100495.50;;;9.03;100.00
64844;BME280;51310;52.198;5.422;2022-11-15T07:34:26;100498.97;;;9.04;100.00
64844;BME280;51310;52.198;5.422;2022-11-15T07:36:52;100493.84;;;9.04;100.00
64844;BME280;51310;52.198;5.422;2022-11-15T07:39:18;100496.72;;;9.07;100.00
64844;BME280;51310;52.198;5.422;2022-11-15T07:41:44;100487.97;;;9.05;100.00
64844;BME280;51310;52.198;5.422;2022-11-15T07:44:10;100496.84;;;9.09;100.00
64844;BME280;51310;52.198;5.422;2022-11-15T07:46:36;100493.81;;;9.13;100.00
64844;BME280;51310;52.198;5.422;2022-11-15T07:49:01;100482.94;;;9.15;100.00
64844;BME280;51310;52.198;5.422;2022-11-15T07:51:27;100489.28;;;9.19;100.00
64844;BME280;51310;52.198;5.422;2022-11-15T07:53:53;100486.72;;;9.19;100.00
64844;BME280;51310;52.198;5.422;2022-11-15T07:56:19;100491.22;;;9.21;100.00
64844;BME280;51310;52.198;5.422;2022-11-15T07:58:46;100485.19;;;9.21;100.00
64844;BME280;51310;52.198;5.422;2022-11-15T08:01:12;100486.41;;;9.24;100.00
64844;BME280;51310;52.198;5.422;2022-11-15T08:03:38;100488.47;;;9.29;100.00
64844;BME280;51310;52.198;5.422;2022-11-15T08:06:04;100486.22;;;9.32;100.00
64844;BME280;51310;52.198;5.422;2022-11-15T08:08:30;100494.22;;;9.35;100.00
64844;BME280;51310;52.198;5.422;2022-11-15T08:11:00;100484.53;;;9.41;100.00
64844;BME280;51310;52.198;5.422;2022-11-15T08:13:26;100486.94;;;9.39;100.00
64844;BME280;51310;52.198;5.422;2022-11-15T08:16:01;100478.66;;;9.42;100.00
64844;BME280;51310;52.198;5.422;2022-11-15T08:18:27;100483.78;;;9.42;100.00
64844;BME280;51310;52.198;5.422;2022-11-15T08:20:53;100475.47;;;9.44;100.00
64844;BME280;51310;52.198;5.422;2022-11-15T08:23:19;100482.28;;;9.44;100.00
64844;BME280;51310;52.198;5.422;2022-11-15T08:25:45;100478.28;;;9.56;100.00
64844;BME280;51310;52.198;5.422;2022-11-15T08:28:11;100469.69;;;9.47;100.00
64844;BME280;51310;52.198;5.422;2022-11-15T08:30:39;100474.81;;;9.56;100.00
64844;BME280;51310;52.198;5.422;2022-11-15T08:33:12;100476.03;;;9.51;100.00
64844;BME280;51310;52.198;5.422;2022-11-15T08:35:40;100476.03;;;9.51;100.00
64844;BME280;51310;52.198;5.422;2022-11-15T08:38:07;100479.66;;;9.53;100.00
64844;BME280;51310;52.198;5.422;2022-11-15T08:40:33;100473.75;;;9.54;100.00
64844;BME280;51310;52.198;5.422;2022-11-15T08:42:58;100463.78;;;9.57;100.00
64844;BME280;51310;52.198;5.422;2022-11-15T08:45:28;100472.06;;;9.54;100.00
64844;BME280;51310;52.198;5.422;2022-11-15T08:47:55;100462.44;;;9.52;100.00
64844;BME280;51310;52.198;5.422;2022-11-15T08:50:21;100457.75;;;9.48;100.00
64844;BME280;51310;52.198;5.422;2022-11-15T08:52:47;100458.81;;;9.50;100.00
64844;BME280;51310;52.198;5.422;2022-11-15T08:55:14;100451.88;;;9.49;100.00
64844;BME280;51310;52.198;5.422;2022-11-15T08:57:40;100455.50;;;9.51;100.00
64844;BME280;51310;52.198;5.422;2022-11-15T09:00:06;100450.47;;;9.52;100.00
64844;BME280;51310;52.198;5.422;2022-11-15T09:02:33;100445.50;;;9.54;100.00
64844;BME280;51310;52.198;5.422;2022-11-15T09:04:58;100441.69;;;9.59;100.00
64844;BME280;51310;52.198;5.422;2022-11-15T09:07:24;100442.69;;;9.70;100.00
64844;BME280;51310;52.198;5.422;2022-11-15T09:09:50;100450.22;;;9.77;100.00
64844;BME280;51310;52.198;5.422;2022-11-15T09:12:16;100451.06;;;9.86;100.00
64844;BME280;51310;52.198;5.422;2022-11-15T09:14:42;100443.16;;;9.93;100.00
64844;BME280;51310;52.198;5.422;2022-11-15T09:17:09;100444.09;;;9.94;100.00
64844;BME280;51310;52.198;5.422;2022-11-15T09:19:35;100428.78;;;9.95;100.00
64844;BME280;51310;52.198;5.422;2022-11-15T09:22:05;100429.13;;;9.90;100.00
64844;BME280;51310;52.198;5.422;2022-11-15T09:24:32;100434.84;;;9.96;100.00
64844;BME280;51310;52.198;5.422;2022-11-15T09:26:58;100435.53;;;10.03;100.00
64844;BME280;51310;52.198;5.422;2022-11-15T09:29:24;100431.53;;;10.16;100.00
64844;BME280;51310;52.198;5.422;2022-11-15T09:31:52;100431.91;;;10.29;100.00
64844;BME280;51310;52.198;5.422;2022-11-15T09:34:18;100439.00;;;10.32;100.00
64844;BME280;51310;52.198;5.422;2022-11-15T09:36:45;100431.72;;;10.27;100.00
64844;BME280;51310;52.198;5.422;2022-11-15T09:39:10;100432.09;;;10.22;100.00
64844;BME280;51310;52.198;5.422;2022-11-15T09:41:58;100427.28;;;10.16;100.00
64844;BME280;51310;52.198;5.422;2022-11-15T09:50:51;100433.31;;;10.17;100.00
64844;BME280;51310;52.198;5.422;2022-11-15T09:53:36;100420.34;;;10.15;100.00
64844;BME280;51310;52.198;5.422;2022-11-15T09:56:23;100426.38;;;10.16;100.00
64844;BME280;51310;52.198;5.422;2022-11-15T09:59:19;100423.44;;;10.21;100.00
64844;BME280;51310;52.198;5.422;2022-11-15T10:04:33;100419.22;;;10.22;100.00
64844;BME280;51310;52.198;5.422;2022-11-15T10:07:25;100415.00;;;10.22;100.00
64844;BME280;51310;52.198;5.422;2022-11-15T10:09:56;100416.19;;;10.26;100.00
64844;BME280;51310;52.198;5.422;2022-11-15T10:12:28;100413.47;;;10.24;100.00
64844;BME280;51310;52.198;5.422;2022-11-15T10:15:03;100412.81;;;10.27;100.00
64844;BME280;51310;52.198;5.422;2022-11-15T10:17:47;100408.13;;;10.32;100.00
64844;BME280;51310;52.198;5.422;2022-11-15T10:20:54;100413.28;;;10.32;100.00
64844;BME280;51310;52.198;5.422;2022-11-15T10:23:23;100408.94;;;10.41;100.00
64844;BME280;51310;52.198;5.422;2022-11-15T10:25:58;100405.88;;;10.45;100.00
64844;BME280;51310;52.198;5.422;2022-11-15T10:28:30;100414.94;;;10.50;100.00
64844;BME280;51310;52.198;5.422;2022-11-15T10:30:59;100412.00;;;10.56;100.00
64844;BME280;51310;52.198;5.422;2022-11-15T10:38:51;100398.00;;;10.62;100.00
64844;BME280;51310;52.198;5.422;2022-11-15T10:44:11;100392.84;;;10.52;100.00
64844;BME280;51310;52.198;5.422;2022-11-15T10:49:30;100369.63;;;10.42;100.00
64844;BME280;51310;52.198;5.422;2022-11-15T10:51:58;100369.88;;;10.45;100.00
64844;BME280;51310;52.198;5.422;2022-11-15T10:54:42;100364.47;;;10.42;100.00
64844;BME280;51310;52.198;5.422;2022-11-15T10:57:17;100354.31;;;10.43;100.00
64844;BME280;51310;52.198;5.422;2022-11-15T10:59:53;100353.31;;;10.52;100.00
64844;BME280;51310;52.198;5.422;2022-11-15T11:02:56;100354.34;;;10.54;100.00
64844;BME280;51310;52.198;5.422;2022-11-15T11:05:38;100346.91;;;10.57;100.00
64844;BME280;51310;52.198;5.422;2022-11-15T11:08:22;100337.19;;;10.63;100.00
64844;BME280;51310;52.198;5.422;2022-11-15T11:10:55;100347.06;;;10.58;100.00
64844;BME280;51310;52.198;5.422;2022-11-15T11:13:30;100345.88;;;10.55;100.00
64844;BME280;51310;52.198;5.422;2022-11-15T11:16:20;100339.59;;;10.61;100.00
64844;BME280;51310;52.198;5.422;2022-11-15T11:19:25;100351.00;;;10.74;100.00
64844;BME280;51310;52.198;5.422;2022-11-15T11:22:06;100348.28;;;10.72;100.00
64844;BME280;51310;52.198;5.422;2022-11-15T11:49:10;100328.88;;;10.86;100.00
64844;BME280;51310;52.198;5.422;2022-11-15T11:52:13;100318.84;;;10.89;100.00
64844;BME280;51310;52.198;5.422;2022-11-15T11:58:17;100312.72;;;10.97;100.00
64844;BME280;51310;52.198;5.422;2022-11-15T12:01:28;100303.94;;;10.95;100.00
64844;BME280;51310;52.198;5.422;2022-11-15T12:04:05;100295.72;;;10.99;100.00
64844;BME280;51310;52.198;5.422;2022-11-15T12:06:47;100287.06;;;10.99;100.00
64844;BME280;51310;52.198;5.422;2022-11-15T12:09:55;100278.59;;;11.00;100.00
64844;BME280;51310;52.198;5.422;2022-11-15T12:12:47;100274.84;;;11.06;100.00
64844;BME280;51310;52.198;5.422;2022-11-15T12:15:26;100271.50;;;11.07;100.00
64844;BME280;51310;52.198;5.422;2022-11-15T12:17:56;100264.56;;;11.17;100.00
64844;BME280;51310;52.198;5.422;2022-11-15T12:20:30;100258.91;;;11.11;100.00
64844;BME280;51310;52.198;5.422;2022-11-15T12:23:16;100263.41;;;11.13;100.00
64844;BME280;51310;52.198;5.422;2022-11-15T12:25:55;100255.28;;;11.08;100.00
64844;BME280;51310;52.198;5.422;2022-11-15T12:31:40;100238.66;;;11.05;99.43
64844;BME280;51310;52.198;5.422;2022-11-15T12:36:49;100227.84;;;10.99;99.20
64844;BME280;51310;52.198;5.422;2022-11-15T12:39:17;100230.41;;;10.99;98.95
64844;BME280;51310;52.198;5.422;2022-11-15T12:52:06;100204.81;;;11.11;95.44
64844;BME280;51310;52.198;5.422;2022-11-15T13:02:41;100186.00;;;11.22;95.53
64844;BME280;51310;52.198;5.422;2022-11-15T13:17:50;100172.22;;;11.11;95.47
64844;BME280;51310;52.198;5.422;2022-11-15T13:20:29;100164.38;;;11.09;95.30
64844;BME280;51310;52.198;5.422;2022-11-15T13:23:15;100163.72;;;11.12;95.56
64844;BME280;51310;52.198;5.422;2022-11-15T13:30:50;100157.94;;;10.94;95.70
64844;BME280;51310;52.198;5.422;2022-11-15T13:33:25;100149.97;;;10.91;96.07
64844;BME280;51310;52.198;5.422;2022-11-15T13:36:03;100149.69;;;10.88;96.43
64844;BME280;51310;52.198;5.422;2022-11-15T13:38:38;100148.56;;;10.84;96.38
64844;BME280;51310;52.198;5.422;2022-11-15T13:41:21;100135.81;;;10.76;96.79
64844;BME280;51310;52.198;5.422;2022-11-15T13:43:52;100133.75;;;10.72;97.23
64844;BME280;51310;52.198;5.422;2022-11-15T13:46:29;100127.56;;;10.70;98.10
64844;BME280;51310;52.198;5.422;2022-11-15T13:49:08;100123.69;;;10.64;98.10
64844;BME280;51310;52.198;5.422;2022-11-15T13:51:47;100122.28;;;10.58;98.98
64844;BME280;51310;52.198;5.422;2022-11-15T13:54:23;100118.66;;;10.56;98.08
64844;BME280;51310;52.198;5.422;2022-11-15T13:57:02;100108.25;;;10.54;97.35
64844;BME280;51310;52.198;5.422;2022-11-15T13:59:43;100107.75;;;10.48;97.59
64844;BME280;51310;52.198;5.422;2022-11-15T14:02:19;100109.28;;;10.46;96.26
64844;BME280;51310;52.198;5.422;2022-11-15T14:04:53;100103.50;;;10.49;95.80
64844;BME280;51310;52.198;5.422;2022-11-15T14:07:25;100102.97;;;10.42;96.39
64844;BME280;51310;52.198;5.422;2022-11-15T14:09:53;100096.03;;;10.41;96.38
64844;BME280;51310;52.198;5.422;2022-11-15T14:12:33;100092.94;;;10.35;96.50
64844;BME280;51310;52.198;5.422;2022-11-15T14:15:26;100092.16;;;10.36;96.81
64844;BME280;51310;52.198;5.422;2022-11-15T14:17:56;100092.78;;;10.34;96.82
64844;BME280;51310;52.198;5.422;2022-11-15T14:20:29;100085.72;;;10.31;96.88
64844;BME280;51310;52.198;5.422;2022-11-15T14:23:05;100079.53;;;10.29;96.35
64844;BME280;51310;52.198;5.422;2022-11-15T14:25:53;100081.59;;;10.33;96.08
64844;BME280;51310;52.198;5.422;2022-11-15T14:30:51;100069.50;;;10.32;96.48
64844;BME280;51310;52.198;5.422;2022-11-15T14:33:21;100070.94;;;10.39;96.36
64844;BME280;51310;52.198;5.422;2022-11-15T14:35:51;100067.59;;;10.40;95.66
64844;BME280;51310;52.198;5.422;2022-11-15T14:38:18;100059.22;;;10.42;95.83
64844;BME280;51310;52.198;5.422;2022-11-15T14:40:44;100059.50;;;10.45;95.04
64844;BME280;51310;52.198;5.422;2022-11-15T14:43:11;100052.53;;;10.44;95.58
64844;BME280;51310;52.198;5.422;2022-11-15T14:45:38;100054.34;;;10.45;95.43
64844;BME280;51310;52.198;5.422;2022-11-15T14:48:05;100051.00;;;10.46;95.25
64844;BME280;51310;52.198;5.422;2022-11-15T14:50:33;100044.97;;;10.46;94.84
64844;BME280;51310;52.198;5.422;2022-11-15T14:52:59;100047.53;;;10.46;94.35
64844;BME280;51310;52.198;5.422;2022-11-15T14:55:32;100035.69;;;10.48;94.49
64844;BME280;51310;52.198;5.422;2022-11-15T14:58:06;100032.25;;;10.48;94.26
64844;BME280;51310;52.198;5.422;2022-11-15T15:00:35;100020.00;;;10.45;94.63